Time;durP1;ratioP1;P1;durP2;ratioP2;P2;SDS_P1;SDS_P2;PMS_P1;PMS_P2;Temp;Humidity;BMP_temperature;BMP_pressure;BME280_temperature;BME280_humidity;BME280_pressure;Samples;Min_cycle;Max_cycle;Signal;HPM_P1;HPM_P2
2023/11/26 00:00:22;;;;;;;;;;;;;;;;;;6309021;28;19920;-79
2023/11/26 00:03:22;;;;;;;;;;;;;;;;;;6309245;28;20400;-79
2023/11/26 00:06:22;;;;;;;;;;;;;;;;;;6304442;28;19920;-79
2023/11/26 00:09:23;;;;;;;;;;;;;;;;;;6304519;28;20277;-79
2023/11/26 00:12:23;;;;;;;;;;;;;;;;;;6309135;28;19923;-79
2023/11/26 00:15:23;;;;;;;;;;;;;;;;;;6309059;28;20367;-80
2023/11/26 00:18:27;;;;;;;;;;;;;;;;;;6318608;28;20265;-79
2023/11/26 00:21:28;;;;;;;;;;;;;;;;;;6309231;28;19920;-78
2023/11/26 00:24:28;;;;;;;;;;;;;;;;;;6339856;27;19928;-78
2023/11/26 00:27:28;;;;;;;;;;;;;;;;;;6306644;28;19933;-78
2023/11/26 00:30:29;;;;;;;;;;;;;;;;;;6312164;28;19920;-78
2023/11/26 00:33:29;;;;;;;;;;;;;;;;;;6307285;28;20293;-78
2023/11/26 00:36:29;;;;;;;;;;;;;;;;;;6306065;28;19912;-78
2023/11/26 00:39:29;;;;;;;;;;;;;;;;;;6305818;28;19923;-78
2023/11/26 00:42:29;;;;;;;;;;;;;;;;;;6301946;28;20015;-78
2023/11/26 00:45:29;;;;;;;;;;;;;;;;;;6310345;28;20007;-78
2023/11/26 00:48:30;;;;;;;;;;;;;;;;;;6312422;28;20003;-79
2023/11/26 00:51:30;;;;;;;;;;;;;;;;;;6303574;28;19912;-78
2023/11/26 00:54:30;;;;;;;;;;;;;;;;;;6310293;28;20016;-78
2023/11/26 00:57:31;;;;;;;;;;;;;;;;;;6303755;28;19948;-78
2023/11/26 01:00:32;;;;;;;;;;;;;;;;;;6302729;28;19963;-78
2023/11/26 01:03:32;;;;;;;;;;;;;;;;;;6317442;28;19919;-78
2023/11/26 01:06:33;;;;;;;;;;;;;;;;;;5960669;27;10000089;-78
2023/11/26 01:09:33;;;;;;;;;;;;;;;;;;6306739;28;19916;-78
2023/11/26 01:12:33;;;;;;;;;;;;;;;;;;6305758;28;20384;-78
2023/11/26 01:15:33;;;;;;;;;;;;;;;;;;6317171;28;19920;-78
2023/11/26 01:18:33;;;;;;;;;;;;;;;;;;6308219;28;19952;-78
2023/11/26 01:21:33;;;;;;;;;;;;;;;;;;6303170;28;19912;-78
2023/11/26 01:24:33;;;;;;;;;;;;;;;;;;6311457;28;19921;-78
2023/11/26 01:27:34;;;;;;;;;;;;;;;;;;6304656;28;19925;-78
2023/11/26 01:30:34;;;;;;;;;;;;;;;;;;6298890;28;19919;-78
2023/11/26 01:33:34;;;;;;;;;;;;;;;;;;6312640;28;19912;-78
2023/11/26 01:36:34;;;;;;;;;;;;;;;;;;6299647;28;19919;-78
2023/11/26 01:39:34;;;;;;;;;;;;;;;;;;6303932;28;19912;-78
2023/11/26 01:42:35;;;;;;;;;;;;;;;;;;6310368;28;19948;-78
2023/11/26 01:45:35;;;;;;;;;;;;;;;;;;6306341;28;19955;-78
2023/11/26 01:48:36;;;;;;;;;;;;;;;;;;6301922;28;19920;-78
2023/11/26 01:51:36;;;;;;;;;;;;;;;;;;6305345;28;19920;-78
2023/11/26 01:54:36;;;;;;;;;;;;;;;;;;6300899;28;19912;-78
2023/11/26 01:57:36;;;;;;;;;;;;;;;;;;6307381;28;22600;-78
2023/11/26 02:00:36;;;;;;;;;;;;;;;;;;6310151;28;19913;-78
2023/11/26 02:03:37;;;;;;;;;;;;;;;;;;6322598;28;19923;-78
2023/11/26 02:06:37;;;;;;;;;;;;;;;;;;6312424;28;19920;-78
2023/11/26 02:09:37;;;;;;;;;;;;;;;;;;6301514;28;19922;-78
2023/11/26 02:12:37;;;;;;;;;;;;;;;;;;6300453;28;20414;-77
2023/11/26 02:15:38;;;;;;;;;;;;;;;;;;6305288;28;19982;-78
2023/11/26 02:18:39;;;;;;;;;;;;;;;;;;6307703;28;19916;-78
2023/11/26 02:21:39;;;;;;;;;;;;;;;;;;6305427;28;19912;-78
2023/11/26 02:24:39;;;;;;;;;;;;;;;;;;6304198;28;20034;-78
2023/11/26 02:27:39;;;;;;;;;;;;;;;;;;6314459;28;19924;-78
2023/11/26 02:30:40;;;;;;;;;;;;;;;;;;6308840;28;19965;-78
2023/11/26 02:33:40;;;;;;;;;;;;;;;;;;6300429;28;19916;-78
2023/11/26 02:36:40;;;;;;;;;;;;;;;;;;6305553;28;20011;-78
2023/11/26 02:39:40;;;;;;;;;;;;;;;;;;6303698;28;20431;-78
2023/11/26 02:42:42;;;;;;;;;;;;;;;;;;6299286;28;20373;-79
2023/11/26 02:45:42;;;;;;;;;;;;;;;;;;6296073;28;20156;-79
2023/11/26 02:48:42;;;;;;;;;;;;;;;;;;6298109;28;19932;-80
2023/11/26 02:51:42;;;;;;;;;;;;;;;;;;6306686;28;19919;-79
2023/11/26 02:54:43;;;;;;;;;;;;;;;;;;6301964;28;19920;-79
2023/11/26 02:57:44;;;;;;;;;;;;;;;;;;6306577;28;19966;-79
2023/11/26 03:00:44;;;;;;;;;;;;;;;;;;6299357;28;20323;-79
2023/11/26 03:03:47;;;;;;;;;;;;;;;;;;6306177;28;20388;-80
2023/11/26 03:06:48;;;;;;;;;;;;;;;;;;6286042;28;20353;-80
2023/11/26 03:13:20;;;;;;;;;;;;;;;;;;6305915;28;19916;-79
2023/11/26 03:16:21;;;;;;;;;;;;;;;;;;6295885;28;19913;-80
2023/11/26 03:19:22;;;;;;;;;;;;;;;;;;6296156;28;19920;-79
2023/11/26 03:22:23;;;;;;;;;;;;;;;;;;6304139;28;19927;-79
2023/11/26 03:25:24;;;;;;;;;;;;;;;;;;6310779;28;19920;-80
2023/11/26 03:28:25;;;;;;;;;;;;;;;;;;6307841;28;19943;-79
2023/11/26 03:31:26;;;;;;;;;;;;;;;;;;6308322;28;19951;-79
2023/11/26 03:34:28;;;;;;;;;;;;;;;;;;6309024;28;19912;-79
2023/11/26 03:37:28;;;;;;;;;;;;;;;;;;6305417;28;20368;-79
2023/11/26 03:40:28;;;;;;;;;;;;;;;;;;6302721;28;20389;-80
2023/11/26 03:43:29;;;;;;;;;;;;;;;;;;6303813;28;19920;-79
2023/11/26 03:46:32;;;;;;;;;;;;;;;;;;6306717;28;20390;-79
2023/11/26 03:49:32;;;;;;;;;;;;;;;;;;6314582;28;20316;-79
2023/11/26 03:52:33;;;;;;;;;;;;;;;;;;6337017;27;19923;-78
2023/11/26 03:55:33;;;;;;;;;;;;;;;;;;6303108;28;19913;-78
2023/11/26 03:58:33;;;;;;;;;;;;;;;;;;6316297;28;20015;-78
2023/11/26 04:01:33;;;;;;;;;;;;;;;;;;6307881;28;20286;-78
2023/11/26 04:04:34;;;;;;;;;;;;;;;;;;6308164;28;20480;-78
2023/11/26 04:07:34;;;;;;;;;;;;;;;;;;6307955;28;19957;-78
2023/11/26 04:10:34;;;;;;;;;;;;;;;;;;6304436;28;20425;-78
2023/11/26 04:13:34;;;;;;;;;;;;;;;;;;6306957;28;20337;-78
2023/11/26 04:16:35;;;;;;;;;;;;;;;;;;6306397;28;19959;-78
2023/11/26 04:19:36;;;;;;;;;;;;;;;;;;6301285;28;19981;-78
2023/11/26 04:22:36;;;;;;;;;;;;;;;;;;6301550;28;19917;-78
2023/11/26 04:25:36;;;;;;;;;;;;;;;;;;6316860;28;20483;-78
2023/11/26 04:28:37;;;;;;;;;;;;;;;;;;6306987;28;20022;-78
2023/11/26 04:31:37;;;;;;;;;;;;;;;;;;6308671;28;20014;-78
2023/11/26 04:34:37;;;;;;;;;;;;;;;;;;6308891;28;19943;-78
2023/11/26 04:37:37;;;;;;;;;;;;;;;;;;6303681;28;20125;-79
2023/11/26 04:40:37;;;;;;;;;;;;;;;;;;6310831;28;19915;-78
2023/11/26 04:43:37;;;;;;;;;;;;;;;;;;6309353;28;19921;-79
2023/11/26 04:46:38;;;;;;;;;;;;;;;;;;6305596;28;19943;-78
2023/11/26 04:49:38;;;;;;;;;;;;;;;;;;6303669;28;20372;-78
2023/11/26 04:52:38;;;;;;;;;;;;;;;;;;6309891;28;20006;-78
2023/11/26 04:55:38;;;;;;;;;;;;;;;;;;6306969;28;20010;-78
2023/11/26 04:58:38;;;;;;;;;;;;;;;;;;6310443;28;20003;-78
2023/11/26 05:01:43;;;;;;;;;;;;;;;;;;6314710;28;20050;-79
2023/11/26 05:04:44;;;;;;;;;;;;;;;;;;6304689;28;20377;-80
2023/11/26 05:07:44;;;;;;;;;;;;;;;;;;6316196;28;19923;-80
2023/11/26 05:10:44;;;;;;;;;;;;;;;;;;6308743;28;19916;-80
2023/11/26 05:13:45;;;;;;;;;;;;;;;;;;6308080;28;19965;-81
2023/11/26 05:16:45;;;;;;;;;;;;;;;;;;6311163;28;19913;-80
2023/11/26 05:19:46;;;;;;;;;;;;;;;;;;6332051;27;20368;-79
2023/11/26 05:22:46;;;;;;;;;;;;;;;;;;6304098;28;19956;-80
2023/11/26 05:25:46;;;;;;;;;;;;;;;;;;6310041;28;19931;-80
2023/11/26 05:28:46;;;;;;;;;;;;;;;;;;6316125;28;19912;-80
2023/11/26 05:31:47;;;;;;;;;;;;;;;;;;6298377;28;19989;-80
2023/11/26 05:34:47;;;;;;;;;;;;;;;;;;6303934;28;20361;-80
2023/11/26 05:37:47;;;;;;;;;;;;;;;;;;6308178;28;20006;-80
2023/11/26 05:40:47;;;;;;;;;;;;;;;;;;6319963;28;19919;-80
2023/11/26 05:43:48;;;;;;;;;;;;;;;;;;6300311;28;19918;-80
2023/11/26 05:46:49;;;;;;;;;;;;;;;;;;6303014;28;19924;-80
2023/11/26 05:49:49;;;;;;;;;;;;;;;;;;6313903;28;19912;-80
2023/11/26 05:52:51;;;;;;;;;;;;;;;;;;6316499;28;19916;-80
2023/11/26 05:55:51;;;;;;;;;;;;;;;;;;6315116;28;19957;-80
2023/11/26 05:58:51;;;;;;;;;;;;;;;;;;6315156;28;19916;-80
2023/11/26 06:01:52;;;;;;;;;;;;;;;;;;6313882;28;20311;-80
2023/11/26 06:04:52;;;;;;;;;;;;;;;;;;6307270;28;19920;-80
2023/11/26 06:07:52;;;;;;;;;;;;;;;;;;6300343;28;19928;-80
2023/11/26 06:10:52;;;;;;;;;;;;;;;;;;6306584;28;19916;-79
2023/11/26 06:13:52;;;;;;;;;;;;;;;;;;6311981;28;19961;-79
2023/11/26 06:16:52;;;;;;;;;;;;;;;;;;6310226;28;19912;-79
2023/11/26 06:19:53;;;;;;;;;;;;;;;;;;6306420;28;19916;-79
2023/11/26 06:22:53;;;;;;;;;;;;;;;;;;6308299;28;20192;-79
2023/11/26 06:25:53;;;;;;;;;;;;;;;;;;6314716;28;19970;-79
2023/11/26 06:28:56;;;;;;;;;;;;;;;;;;6308713;28;20108;-79
2023/11/26 06:31:56;;;;;;;;;;;;;;;;;;6303103;28;19920;-79
2023/11/26 06:34:56;;;;;;;;;;;;;;;;;;6308357;28;19967;-79
2023/11/26 06:37:56;;;;;;;;;;;;;;;;;;6303989;28;19916;-79
2023/11/26 06:40:56;;;;;;;;;;;;;;;;;;6301091;28;19912;-79
2023/11/26 06:43:56;;;;;;;;;;;;;;;;;;6298130;28;19912;-79
2023/11/26 06:46:57;;;;;;;;;;;;;;;;;;6304714;28;19917;-79
2023/11/26 06:49:57;;;;;;;;;;;;;;;;;;6301904;28;19927;-80
2023/11/26 06:52:57;;;;;;;;;;;;;;;;;;6310849;28;19913;-79
2023/11/26 06:55:57;;;;;;;;;;;;;;;;;;6320067;28;19918;-79
2023/11/26 06:58:58;;;;;;;;;;;;;;;;;;6304765;28;20391;-79
2023/11/26 07:01:58;;;;;;;;;;;;;;;;;;6300466;28;19916;-79
2023/11/26 07:04:59;;;;;;;;;;;;;;;;;;6307647;28;20391;-79
2023/11/26 07:07:59;;;;;;;;;;;;;;;;;;6281508;28;19947;-80
2023/11/26 07:10:59;;;;;;;;;;;;;;;;;;6304285;28;19931;-79
2023/11/26 07:14:00;;;;;;;;;;;;;;;;;;6303726;28;19931;-79
2023/11/26 07:17:00;;;;;;;;;;;;;;;;;;6302365;28;19919;-79
2023/11/26 07:20:00;;;;;;;;;;;;;;;;;;6297182;28;20705;-79
2023/11/26 07:23:01;;;;;;;;;;;;;;;;;;6314814;28;19961;-82
2023/11/26 07:26:01;;;;;;;;;;;;;;;;;;6304851;28;19924;-82
2023/11/26 07:29:01;;;;;;;;;;;;;;;;;;6325747;28;19913;-82
2023/11/26 07:32:01;;;;;;;;;;;;;;;;;;6310417;28;20388;-81
2023/11/26 07:35:01;;;;;;;;;;;;;;;;;;6302965;28;20296;-82
2023/11/26 07:38:03;;;;;;;;;;;;;;;;;;6306149;28;19974;-81
2023/11/26 07:41:03;;;;;;;;;;;;;;;;;;6305368;28;19952;-82
2023/11/26 07:44:09;;;;;;;;;;;;;;;;;;6310275;28;19919;-80
2023/11/26 07:47:10;;;;;;;;;;;;;;;;;;6316190;28;19924;-80
2023/11/26 07:50:10;;;;;;;;;;;;;;;;;;6318291;28;20428;-79
2023/11/26 07:53:10;;;;;;;;;;;;;;;;;;6323447;28;19931;-81
2023/11/26 07:56:10;;;;;;;;;;;;;;;;;;6314104;28;19947;-80
2023/11/26 07:59:10;;;;;;;;;;;;;;;;;;6303252;28;19917;-81
2023/11/26 08:02:10;;;;;;;;;;;;;;;;;;6307700;28;20003;-80
2023/11/26 08:05:13;;;;;;;;;;;;;;;;;;6313284;28;19997;-82
2023/11/26 08:08:14;;;;;;;;;;;;;;;;;;6328195;27;20471;-83
2023/11/26 08:11:16;;;;;;;;;;;;;;;;;;6304346;28;19959;-82
2023/11/26 08:14:16;;;;;;;;;;;;;;;;;;6313175;28;19916;-82
2023/11/26 08:17:16;;;;;;;;;;;;;;;;;;6302368;28;19935;-82
2023/11/26 08:20:16;;;;;;;;;;;;;;;;;;6310839;28;19939;-83
2023/11/26 08:23:17;;;;;;;;;;;;;;;;;;6306621;28;19920;-83
2023/11/26 08:26:17;;;;;;;;;;;;;;;;;;6326928;28;19931;-82
2023/11/26 08:29:18;;;;;;;;;;;;;;;;;;6310310;28;19919;-82
2023/11/26 08:32:19;;;;;;;;;;;;;;;;;;6311786;28;19920;-83
2023/11/26 08:35:20;;;;;;;;;;;;;;;;;;6306935;28;19987;-83
2023/11/26 08:38:20;;;;;;;;;;;;;;;;;;6303799;28;19912;-83
2023/11/26 08:41:21;;;;;;;;;;;;;;;;;;6305727;28;19991;-83
2023/11/26 08:44:21;;;;;;;;;;;;;;;;;;6318526;27;19920;-84
2023/11/26 08:47:27;;;;;;;;;;;;;;;;;;6304452;28;20381;-82
2023/11/26 08:50:27;;;;;;;;;;;;;;;;;;6303283;28;19916;-85
2023/11/26 08:53:29;;;;;;;;;;;;;;;;;;6302139;28;20289;-85
2023/11/26 08:56:30;;;;;;;;;;;;;;;;;;6303553;28;20328;-80
2023/11/26 08:59:30;;;;;;;;;;;;;;;;;;6300504;28;19917;-79
2023/11/26 09:02:30;;;;;;;;;;;;;;;;;;6319474;28;19916;-81
2023/11/26 09:05:30;;;;;;;;;;;;;;;;;;6306949;28;19908;-80
2023/11/26 09:08:30;;;;;;;;;;;;;;;;;;6303087;28;19965;-82
2023/11/26 09:11:30;;;;;;;;;;;;;;;;;;6319519;28;19915;-81
2023/11/26 09:14:30;;;;;;;;;;;;;;;;;;6304390;28;19942;-80
2023/11/26 09:17:31;;;;;;;;;;;;;;;;;;6303234;28;19962;-81
2023/11/26 09:20:31;;;;;;;;;;;;;;;;;;6295574;28;19974;-80
2023/11/26 09:23:32;;;;;;;;;;;;;;;;;;6307661;28;19918;-79
2023/11/26 09:26:32;;;;;;;;;;;;;;;;;;6315092;28;20546;-78
2023/11/26 09:29:32;;;;;;;;;;;;;;;;;;6316767;28;19912;-81
2023/11/26 09:32:33;;;;;;;;;;;;;;;;;;6319581;28;19915;-82
2023/11/26 09:35:33;;;;;;;;;;;;;;;;;;6297753;28;19916;-82
2023/11/26 09:38:33;;;;;;;;;;;;;;;;;;6299623;28;19920;-81
2023/11/26 09:41:33;;;;;;;;;;;;;;;;;;6293605;28;19912;-79
2023/11/26 09:44:33;;;;;;;;;;;;;;;;;;6293821;28;19981;-79
2023/11/26 09:47:33;;;;;;;;;;;;;;;;;;6297486;28;20254;-80
2023/11/26 09:50:34;;;;;;;;;;;;;;;;;;6309138;28;19990;-79
2023/11/26 09:53:34;;;;;;;;;;;;;;;;;;6311840;28;19913;-79
2023/11/26 09:56:35;;;;;;;;;;;;;;;;;;6296262;28;19920;-79
2023/11/26 09:59:35;;;;;;;;;;;;;;;;;;6293238;28;19912;-79
2023/11/26 10:02:35;;;;;;;;;;;;;;;;;;6298779;28;19912;-79
2023/11/26 10:05:35;;;;;;;;;;;;;;;;;;6294894;28;19920;-81
2023/11/26 10:08:36;;;;;;;;;;;;;;;;;;6295015;28;19931;-80
2023/11/26 10:11:36;;;;;;;;;;;;;;;;;;6297771;28;20010;-80
2023/11/26 10:14:36;;;;;;;;;;;;;;;;;;6298409;28;19916;-79
2023/11/26 10:17:36;;;;;;;;;;;;;;;;;;6298634;28;20007;-79
2023/11/26 10:20:38;;;;;;;;;;;;;;;;;;6297259;28;19923;-79
2023/11/26 10:23:39;;;;;;;;;;;;;;;;;;6318701;28;20010;-79
2023/11/26 10:26:40;;;;;;;;;;;;;;;;;;6299119;28;19931;-79
2023/11/26 10:29:40;;;;;;;;;;;;;;;;;;6299361;28;19913;-77
2023/11/26 10:32:40;;;;;;;;;;;;;;;;;;6302035;28;19958;-80
2023/11/26 10:35:40;;;;;;;;;;;;;;;;;;6299587;28;19924;-78
2023/11/26 10:38:40;;;;;;;;;;;;;;;;;;6297720;28;19920;-79
2023/11/26 10:41:40;;;;;;;;;;;;;;;;;;6290030;28;19920;-79
2023/11/26 10:44:40;;;;;;;;;;;;;;;;;;6300212;28;19913;-79
2023/11/26 10:47:41;;;;;;;;;;;;;;;;;;6297296;28;20176;-79
2023/11/26 10:50:41;;;;;;;;;;;;;;;;;;6302413;28;19955;-80
2023/11/26 10:53:42;;;;;;;;;;;;;;;;;;6296964;28;19912;-79
2023/11/26 10:56:44;;;;;;;;;;;;;;;;;;6306580;28;19921;-80
2023/11/26 10:59:45;;;;;;;;;;;;;;;;;;6321059;28;20249;-80
2023/11/26 11:02:45;;;;;;;;;;;;;;;;;;6307536;28;19993;-80
2023/11/26 11:05:48;;;;;;;;;;;;;;;;;;6305115;28;20315;-79
2023/11/26 11:08:48;;;;;;;;;;;;;;;;;;6305169;28;19995;-80
2023/11/26 11:11:49;;;;;;;;;;;;;;;;;;6304150;28;19912;-84
2023/11/26 11:14:49;;;;;;;;;;;;;;;;;;6306001;28;19919;-82
2023/11/26 11:17:49;;;;;;;;;;;;;;;;;;6323450;28;20424;-82
2023/11/26 11:20:49;;;;;;;;;;;;;;;;;;6289062;28;20426;-81
2023/11/26 11:23:49;;;;;;;;;;;;;;;;;;6301549;28;20368;-81
2023/11/26 11:26:50;;;;;;;;;;;;;;;;;;6306058;28;19932;-81
2023/11/26 11:29:50;;;;;;;;;;;;;;;;;;6305524;28;19913;-81
2023/11/26 11:32:50;;;;;;;;;;;;;;;;;;6304892;28;19917;-82
2023/11/26 11:35:50;;;;;;;;;;;;;;;;;;6300494;28;19912;-82
2023/11/26 11:38:50;;;;;;;;;;;;;;;;;;6306335;28;21152;-82
2023/11/26 11:41:50;;;;;;;;;;;;;;;;;;5950507;28;9999685;-82
2023/11/26 11:44:51;;;;;;;;;;;;;;;;;;6302953;28;19927;-83
2023/11/26 11:47:51;;;;;;;;;;;;;;;;;;6300762;28;19924;-82
2023/11/26 11:50:52;;;;;;;;;;;;;;;;;;6303401;28;20004;-83
2023/11/26 11:53:52;;;;;;;;;;;;;;;;;;6297812;28;20328;-82
2023/11/26 11:56:52;;;;;;;;;;;;;;;;;;6299421;28;20310;-82
2023/11/26 11:59:52;;;;;;;;;;;;;;;;;;6304643;28;20250;-83
2023/11/26 12:02:52;;;;;;;;;;;;;;;;;;6314313;28;19934;-83
2023/11/26 12:05:52;;;;;;;;;;;;;;;;;;6297599;28;19926;-82
2023/11/26 12:08:53;;;;;;;;;;;;;;;;;;6301946;28;19916;-82
2023/11/26 12:11:53;;;;;;;;;;;;;;;;;;6296605;28;19920;-83
2023/11/26 12:14:54;;;;;;;;;;;;;;;;;;6304089;28;19927;-82
2023/11/26 12:17:54;;;;;;;;;;;;;;;;;;6297868;28;19920;-82
2023/11/26 12:20:54;;;;;;;;;;;;;;;;;;6303476;28;19927;-82
2023/11/26 12:23:54;;;;;;;;;;;;;;;;;;6316877;28;20384;-82
2023/11/26 12:26:55;;;;;;;;;;;;;;;;;;6300529;28;20399;-82
2023/11/26 12:29:55;;;;;;;;;;;;;;;;;;6299221;28;19912;-82
2023/11/26 12:32:55;;;;;;;;;;;;;;;;;;6314074;28;19969;-83
2023/11/26 12:35:55;;;;;;;;;;;;;;;;;;6301873;28;19916;-82
2023/11/26 12:38:55;;;;;;;;;;;;;;;;;;6297362;28;19916;-82
2023/11/26 12:41:55;;;;;;;;;;;;;;;;;;6302915;28;20456;-82
2023/11/26 12:44:56;;;;;;;;;;;;;;;;;;6297337;28;19912;-82
2023/11/26 12:47:56;;;;;;;;;;;;;;;;;;6298292;28;19924;-82
2023/11/26 12:50:56;;;;;;;;;;;;;;;;;;6302766;28;19923;-84
2023/11/26 12:53:56;;;;;;;;;;;;;;;;;;6316191;28;19974;-84
2023/11/26 12:56:56;;;;;;;;;;;;;;;;;;6301201;28;19951;-84
2023/11/26 12:59:57;;;;;;;;;;;;;;;;;;6304035;28;20334;-85
2023/11/26 13:02:57;;;;;;;;;;;;;;;;;;6299580;28;20229;-83
2023/11/26 13:05:57;;;;;;;;;;;;;;;;;;6296217;28;19923;-84
2023/11/26 13:08:57;;;;;;;;;;;;;;;;;;6299194;28;19970;-84
2023/11/26 13:11:58;;;;;;;;;;;;;;;;;;6303602;28;19916;-84
2023/11/26 13:14:58;;;;;;;;;;;;;;;;;;6303359;28;19923;-83
2023/11/26 13:17:58;;;;;;;;;;;;;;;;;;5953506;28;9999799;-84
2023/11/26 13:21:04;;;;;;;;;;;;;;;;;;6302349;28;19912;-85
2023/11/26 13:24:04;;;;;;;;;;;;;;;;;;6306286;28;19932;-87
2023/11/26 13:27:04;;;;;;;;;;;;;;;;;;6314855;28;19939;-83
2023/11/26 13:30:05;;;;;;;;;;;;;;;;;;6297911;28;19921;-84
2023/11/26 13:33:05;;;;;;;;;;;;;;;;;;6301944;28;20031;-84
2023/11/26 13:36:06;;;;;;;;;;;;;;;;;;6303636;28;19912;-85
2023/11/26 13:39:06;;;;;;;;;;;;;;;;;;6298724;28;19920;-86
2023/11/26 13:42:06;;;;;;;;;;;;;;;;;;6318359;28;21540;-86
2023/11/26 13:45:07;;;;;;;;;;;;;;;;;;6300646;28;19994;-86
2023/11/26 13:48:07;;;;;;;;;;;;;;;;;;6304208;28;19920;-87
2023/11/26 13:51:07;;;;;;;;;;;;;;;;;;6302985;28;20361;-87
2023/11/26 13:54:08;;;;;;;;;;;;;;;;;;6288129;28;20376;-86
2023/11/26 13:57:08;;;;;;;;;;;;;;;;;;6297512;28;19920;-85
2023/11/26 14:00:10;;;;;;;;;;;;;;;;;;6316977;28;19999;-86
2023/11/26 14:03:11;;;;;;;;;;;;;;;;;;6307606;28;19966;-85
2023/11/26 14:06:12;;;;;;;;;;;;;;;;;;6302360;28;19932;-85
2023/11/26 14:09:14;;;;;;;;;;;;;;;;;;6300909;28;20356;-85
2023/11/26 14:12:15;;;;;;;;;;;;;;;;;;6301821;28;19920;-85
2023/11/26 14:15:15;;;;;;;;;;;;;;;;;;6304880;28;19920;-85
2023/11/26 14:18:15;;;;;;;;;;;;;;;;;;6299113;28;19920;-84
2023/11/26 14:21:15;;;;;;;;;;;;;;;;;;6297283;28;19919;-82
2023/11/26 14:24:15;;;;;;;;;;;;;;;;;;6299737;28;19920;-82
2023/11/26 14:27:15;;;;;;;;;;;;;;;;;;6303649;28;19924;-83
2023/11/26 14:30:15;;;;;;;;;;;;;;;;;;6301918;28;19919;-82
2023/11/26 14:33:16;;;;;;;;;;;;;;;;;;6314290;28;20428;-82
2023/11/26 14:36:16;;;;;;;;;;;;;;;;;;6302364;28;20385;-82
2023/11/26 14:39:16;;;;;;;;;;;;;;;;;;6301522;28;20317;-82
2023/11/26 14:42:17;;;;;;;;;;;;;;;;;;6316710;28;19986;-81
2023/11/26 14:45:17;;;;;;;;;;;;;;;;;;6305578;28;20428;-80
2023/11/26 14:48:19;;;;;;;;;;;;;;;;;;6297116;28;19982;-81
2023/11/26 14:51:20;;;;;;;;;;;;;;;;;;6301434;28;19916;-82
2023/11/26 14:54:21;;;;;;;;;;;;;;;;;;6297526;28;19959;-80
2023/11/26 14:57:21;;;;;;;;;;;;;;;;;;6281192;28;20019;-80
2023/11/26 15:00:21;;;;;;;;;;;;;;;;;;6278029;28;20365;-79
2023/11/26 15:03:22;;;;;;;;;;;;;;;;;;6300369;28;19913;-80
2023/11/26 15:06:22;;;;;;;;;;;;;;;;;;6280899;28;19929;-80
2023/11/26 15:09:24;;;;;;;;;;;;;;;;;;6294714;28;19963;-81
2023/11/26 15:12:25;;;;;;;;;;;;;;;;;;6296528;28;19955;-78
2023/11/26 15:15:25;;;;;;;;;;;;;;;;;;6300784;28;19965;-80
2023/11/26 15:18:25;;;;;;;;;;;;;;;;;;5943473;28;9999643;-79
2023/11/26 15:21:25;;;;;;;;;;;;;;;;;;6296012;28;19943;-76
2023/11/26 15:24:25;;;;;;;;;;;;;;;;;;6312478;28;19920;-78
2023/11/26 15:27:25;;;;;;;;;;;;;;;;;;6300441;28;20546;-78
2023/11/26 15:30:27;;;;;;;;;;;;;;;;;;6295059;28;20226;-79
2023/11/26 15:33:27;;;;;;;;;;;;;;;;;;6294702;28;20035;-80
2023/11/26 15:36:27;;;;;;;;;;;;;;;;;;6292602;28;19923;-83
2023/11/26 15:39:28;;;;;;;;;;;;;;;;;;6293776;28;20003;-80
2023/11/26 15:42:28;;;;;;;;;;;;;;;;;;6306486;28;20385;-82
2023/11/26 15:45:29;;;;;;;;;;;;;;;;;;6305474;28;19938;-82
2023/11/26 15:48:30;;;;;;;;;;;;;;;;;;6299921;28;20027;-80
2023/11/26 15:51:31;;;;;;;;;;;;;;;;;;6298294;28;20404;-81
2023/11/26 15:54:31;;;;;;;;;;;;;;;;;;6302387;28;19922;-84
2023/11/26 15:57:31;;;;;;;;;;;;;;;;;;6305059;28;19912;-82
2023/11/26 16:00:31;;;;;;;;;;;;;;;;;;6306449;28;19924;-84
2023/11/26 16:03:31;;;;;;;;;;;;;;;;;;6302076;28;20335;-82
2023/11/26 16:06:31;;;;;;;;;;;;;;;;;;6303971;28;20343;-87
2023/11/26 16:09:34;;;;;;;;;;;;;;;;;;6300897;28;19919;-86
2023/11/26 16:12:35;;;;;;;;;;;;;;;;;;6308110;28;19920;-84
2023/11/26 16:15:37;;;;;;;;;;;;;;;;;;6304801;28;19913;-85
2023/11/26 16:18:37;;;;;;;;;;;;;;;;;;6308228;28;19920;-90
2023/11/26 16:21:37;;;;;;;;;;;;;;;;;;6305623;28;19951;-83
2023/11/26 16:24:38;;;;;;;;;;;;;;;;;;6297926;28;19920;-84
2023/11/26 16:27:38;;;;;;;;;;;;;;;;;;6301262;28;19925;-80
2023/11/26 16:30:38;;;;;;;;;;;;;;;;;;6298723;28;20361;-80
2023/11/26 16:33:38;;;;;;;;;;;;;;;;;;6307807;28;19916;-84
2023/11/26 16:36:38;;;;;;;;;;;;;;;;;;6320676;28;19913;-81
2023/11/26 16:39:42;;;;;;;;;;;;;;;;;;6324982;28;20254;-83
2023/11/26 16:42:42;;;;;;;;;;;;;;;;;;6313686;28;20365;-84
2023/11/26 16:45:43;;;;;;;;;;;;;;;;;;6319465;28;19916;-80
2023/11/26 16:48:44;;;;;;;;;;;;;;;;;;6319765;28;19932;-79
2023/11/26 16:51:44;;;;;;;;;;;;;;;;;;6299809;28;20286;-80
2023/11/26 16:54:44;;;;;;;;;;;;;;;;;;6299511;28;19916;-79
2023/11/26 16:57:44;;;;;;;;;;;;;;;;;;6303896;28;20050;-81
2023/11/26 17:00:44;;;;;;;;;;;;;;;;;;6305443;28;20364;-82
2023/11/26 17:03:44;;;;;;;;;;;;;;;;;;6301590;28;19948;-80
2023/11/26 17:06:45;;;;;;;;;;;;;;;;;;6299030;28;19921;-81
2023/11/26 17:09:45;;;;;;;;;;;;;;;;;;6306223;28;20377;-84
2023/11/26 17:12:49;;;;;;;;;;;;;;;;;;6302587;28;19926;-84
2023/11/26 17:15:49;;;;;;;;;;;;;;;;;;6298336;28;19912;-84
2023/11/26 17:18:49;;;;;;;;;;;;;;;;;;6302864;28;20320;-82
2023/11/26 17:21:49;;;;;;;;;;;;;;;;;;6299543;28;20285;-80
2023/11/26 17:24:50;;;;;;;;;;;;;;;;;;6300371;28;19924;-81
2023/11/26 17:27:50;;;;;;;;;;;;;;;;;;6301490;28;19928;-82
2023/11/26 17:30:50;;;;;;;;;;;;;;;;;;6322960;28;20384;-82
2023/11/26 17:33:50;;;;;;;;;;;;;;;;;;6313250;28;20054;-81
2023/11/26 17:36:50;;;;;;;;;;;;;;;;;;6315074;28;19922;-88
2023/11/26 17:39:50;;;;;;;;;;;;;;;;;;6297518;28;20007;-83
2023/11/26 17:42:51;;;;;;;;;;;;;;;;;;6305349;28;20000;-84
2023/11/26 17:45:51;;;;;;;;;;;;;;;;;;6299110;28;19912;-82
2023/11/26 17:48:51;;;;;;;;;;;;;;;;;;6302932;28;19920;-79
2023/11/26 17:51:51;;;;;;;;;;;;;;;;;;6299754;28;19912;-91
2023/11/26 17:54:51;;;;;;;;;;;;;;;;;;6321206;28;19916;-93
2023/11/26 17:57:52;;;;;;;;;;;;;;;;;;6304052;28;19917;-88
2023/11/26 18:00:52;;;;;;;;;;;;;;;;;;6305639;28;20291;-82
2023/11/26 18:03:52;;;;;;;;;;;;;;;;;;6302211;28;20364;-82
2023/11/26 18:06:52;;;;;;;;;;;;;;;;;;6298366;28;19931;-79
2023/11/26 18:09:52;;;;;;;;;;;;;;;;;;6300493;28;19918;-79
2023/11/26 18:12:52;;;;;;;;;;;;;;;;;;6299007;28;19931;-81
2023/11/26 18:15:52;;;;;;;;;;;;;;;;;;6299732;28;19916;-83
2023/11/26 18:18:53;;;;;;;;;;;;;;;;;;6300212;28;19916;-82
2023/11/26 18:21:53;;;;;;;;;;;;;;;;;;6297381;28;19912;-83
2023/11/26 18:24:53;;;;;;;;;;;;;;;;;;6315694;28;19977;-83
2023/11/26 18:27:53;;;;;;;;;;;;;;;;;;6301728;28;19938;-86
2023/11/26 18:30:53;;;;;;;;;;;;;;;;;;6303656;28;19920;-84
2023/11/26 18:33:53;;;;;;;;;;;;;;;;;;6308314;28;19927;-86
2023/11/26 18:36:53;;;;;;;;;;;;;;;;;;6288718;28;19981;-82
2023/11/26 18:39:55;;;;;;;;;;;;;;;;;;6313803;28;20007;-82
2023/11/26 18:42:55;;;;;;;;;;;;;;;;;;6305467;28;20007;-91
2023/11/26 18:45:55;;;;;;;;;;;;;;;;;;6304149;28;20262;-84
2023/11/26 18:48:56;;;;;;;;;;;;;;;;;;6289815;28;19934;-83
2023/11/26 18:51:56;;;;;;;;;;;;;;;;;;6297368;28;19920;-85
2023/11/26 18:54:59;;;;;;;;;;;;;;;;;;6280191;28;19938;-83
2023/11/26 18:57:59;;;;;;;;;;;;;;;;;;6301101;28;19924;-87
2023/11/26 19:01:00;;;;;;;;;;;;;;;;;;6303270;28;19913;-85
2023/11/26 19:04:01;;;;;;;;;;;;;;;;;;6302478;28;19913;-85
2023/11/26 19:07:01;;;;;;;;;;;;;;;;;;6298814;28;19920;-83
2023/11/26 19:10:04;;;;;;;;;;;;;;;;;;6296968;28;19916;-81
2023/11/26 19:13:04;;;;;;;;;;;;;;;;;;6300416;28;20339;-83
2023/11/26 19:16:04;;;;;;;;;;;;;;;;;;6307058;28;19920;-83
2023/11/26 19:19:04;;;;;;;;;;;;;;;;;;6308717;28;19912;-81
2023/11/26 19:22:05;;;;;;;;;;;;;;;;;;6308318;28;19916;-85
2023/11/26 19:25:05;;;;;;;;;;;;;;;;;;6307589;28;19927;-75
2023/11/26 19:28:06;;;;;;;;;;;;;;;;;;6307346;28;19924;-81
2023/11/26 19:31:06;;;;;;;;;;;;;;;;;;6305006;28;19916;-80
2023/11/26 19:34:06;;;;;;;;;;;;;;;;;;5952474;28;9999981;-81
2023/11/26 19:37:10;;;;;;;;;;;;;;;;;;6302012;28;20377;-80
2023/11/26 19:40:10;;;;;;;;;;;;;;;;;;6298437;28;19923;-81
2023/11/26 19:43:12;;;;;;;;;;;;;;;;;;6303617;28;20014;-81
2023/11/26 19:46:12;;;;;;;;;;;;;;;;;;6298174;28;20019;-81
2023/11/26 19:49:12;;;;;;;;;;;;;;;;;;6301921;28;19916;-81
2023/11/26 19:52:12;;;;;;;;;;;;;;;;;;6302087;28;19923;-81
2023/11/26 19:55:12;;;;;;;;;;;;;;;;;;6297077;28;19970;-81
2023/11/26 19:58:13;;;;;;;;;;;;;;;;;;6300516;28;19916;-81
2023/11/26 20:01:13;;;;;;;;;;;;;;;;;;6299783;28;19965;-81
2023/11/26 20:04:13;;;;;;;;;;;;;;;;;;6301238;28;19939;-81
2023/11/26 20:07:13;;;;;;;;;;;;;;;;;;6317021;28;19924;-81
2023/11/26 20:10:14;;;;;;;;;;;;;;;;;;6301696;28;20339;-81
2023/11/26 20:13:14;;;;;;;;;;;;;;;;;;6297774;28;19916;-81
2023/11/26 20:16:14;;;;;;;;;;;;;;;;;;6300141;28;19927;-81
2023/11/26 20:19:14;;;;;;;;;;;;;;;;;;6299821;28;19916;-81
2023/11/26 20:22:15;;;;;;;;;;;;;;;;;;6297914;28;19916;-81
2023/11/26 20:25:15;;;;;;;;;;;;;;;;;;6301904;28;19924;-82
2023/11/26 20:28:15;;;;;;;;;;;;;;;;;;6302567;28;20479;-81
2023/11/26 20:31:15;;;;;;;;;;;;;;;;;;6299913;28;19967;-80